sensor_id;sensor_type;location;lat;lon;timestamp;P1;durP1;ratioP1;P2;durP2;ratioP2
323;SDS011;149;51.094;17.002;2023-01-06T00:01:52;5.68;;;3.08;;
323;SDS011;149;51.094;17.002;2023-01-06T00:04:19;4.78;;;1.58;;
323;SDS011;149;51.094;17.002;2023-01-06T00:06:46;2.22;;;1.30;;
323;SDS011;149;51.094;17.002;2023-01-06T00:09:15;4.68;;;1.05;;
323;SDS011;149;51.094;17.002;2023-01-06T00:11:46;1.85;;;1.45;;
323;SDS011;149;51.094;17.002;2023-01-06T00:14:14;1.35;;;1.10;;
323;SDS011;149;51.094;17.002;2023-01-06T00:16:41;3.65;;;1.48;;
323;SDS011;149;51.094;17.002;2023-01-06T00:19:09;2.63;;;1.10;;
323;SDS011;149;51.094;17.002;2023-01-06T00:21:43;4.25;;;1.25;;
323;SDS011;149;51.094;17.002;2023-01-06T00:24:11;2.38;;;1.30;;
323;SDS011;149;51.094;17.002;2023-01-06T00:26:38;2.67;;;1.45;;
323;SDS011;149;51.094;17.002;2023-01-06T00:29:05;3.40;;;1.60;;
323;SDS011;149;51.094;17.002;2023-01-06T00:31:36;2.38;;;1.67;;
323;SDS011;149;51.094;17.002;2023-01-06T00:34:05;1.58;;;1.48;;
323;SDS011;149;51.094;17.002;2023-01-06T00:36:33;4.03;;;2.08;;
323;SDS011;149;51.094;17.002;2023-01-06T00:39:02;3.10;;;2.08;;
323;SDS011;149;51.094;17.002;2023-01-06T00:41:30;2.67;;;1.45;;
323;SDS011;149;51.094;17.002;2023-01-06T00:44:16;2.33;;;2.08;;
323;SDS011;149;51.094;17.002;2023-01-06T00:46:46;2.90;;;2.17;;
323;SDS011;149;51.094;17.002;2023-01-06T00:49:13;2.80;;;1.90;;
323;SDS011;149;51.094;17.002;2023-01-06T00:51:42;4.25;;;1.95;;
323;SDS011;149;51.094;17.002;2023-01-06T00:54:10;4.45;;;1.23;;
323;SDS011;149;51.094;17.002;2023-01-06T00:56:43;4.55;;;1.58;;
323;SDS011;149;51.094;17.002;2023-01-06T00:59:13;1.60;;;1.48;;
323;SDS011;149;51.094;17.002;2023-01-06T01:01:50;2.15;;;1.25;;
323;SDS011;149;51.094;17.002;2023-01-06T01:04:28;2.78;;;1.30;;
323;SDS011;149;51.094;17.002;2023-01-06T01:06:55;1.98;;;1.20;;
323;SDS011;149;51.094;17.002;2023-01-06T01:09:24;2.38;;;1.20;;
323;SDS011;149;51.094;17.002;2023-01-06T01:11:54;4.55;;;1.30;;
323;SDS011;149;51.094;17.002;2023-01-06T01:17:07;5.97;;;1.90;;
323;SDS011;149;51.094;17.002;2023-01-06T01:19:38;2.63;;;1.40;;
323;SDS011;149;51.094;17.002;2023-01-06T01:22:08;3.03;;;1.40;;
323;SDS011;149;51.094;17.002;2023-01-06T01:24:35;2.97;;;1.92;;
323;SDS011;149;51.094;17.002;2023-01-06T01:27:03;5.82;;;1.50;;
323;SDS011;149;51.094;17.002;2023-01-06T01:29:31;2.95;;;1.35;;
323;SDS011;149;51.094;17.002;2023-01-06T01:31:59;2.35;;;1.15;;
323;SDS011;149;51.094;17.002;2023-01-06T01:34:30;4.97;;;1.65;;
323;SDS011;149;51.094;17.002;2023-01-06T01:36:57;0.98;;;0.98;;
323;SDS011;149;51.094;17.002;2023-01-06T01:39:27;3.70;;;1.70;;
323;SDS011;149;51.094;17.002;2023-01-06T01:41:55;1.77;;;1.23;;
323;SDS011;149;51.094;17.002;2023-01-06T01:47:39;4.90;;;2.17;;
323;SDS011;149;51.094;17.002;2023-01-06T01:50:21;7.75;;;4.32;;
323;SDS011;149;51.094;17.002;2023-01-06T01:52:56;10.40;;;3.90;;
323;SDS011;149;51.094;17.002;2023-01-06T01:55:57;3.90;;;2.20;;
323;SDS011;149;51.094;17.002;2023-01-06T01:58:32;2.95;;;1.88;;
323;SDS011;149;51.094;17.002;2023-01-06T02:01:04;5.75;;;2.85;;
323;SDS011;149;51.094;17.002;2023-01-06T02:03:33;4.45;;;1.83;;
323;SDS011;149;51.094;17.002;2023-01-06T02:06:02;5.15;;;3.10;;
323;SDS011;149;51.094;17.002;2023-01-06T02:08:40;2.60;;;1.70;;
323;SDS011;149;51.094;17.002;2023-01-06T02:11:11;4.22;;;2.00;;
323;SDS011;149;51.094;17.002;2023-01-06T02:13:39;3.95;;;2.45;;
323;SDS011;149;51.094;17.002;2023-01-06T02:25:13;2.70;;;2.25;;
323;SDS011;149;51.094;17.002;2023-01-06T02:28:08;5.75;;;2.10;;
323;SDS011;149;51.094;17.002;2023-01-06T02:45:22;3.95;;;2.10;;
323;SDS011;149;51.094;17.002;2023-01-06T02:50:47;3.92;;;2.53;;
323;SDS011;149;51.094;17.002;2023-01-06T02:53:21;3.20;;;2.40;;
323;SDS011;149;51.094;17.002;2023-01-06T02:56:20;6.53;;;3.33;;
323;SDS011;149;51.094;17.002;2023-01-06T02:58:56;7.40;;;2.30;;
323;SDS011;149;51.094;17.002;2023-01-06T03:01:34;3.30;;;3.00;;
323;SDS011;149;51.094;17.002;2023-01-06T03:04:10;4.72;;;2.45;;
323;SDS011;149;51.094;17.002;2023-01-06T03:06:41;4.88;;;2.60;;
323;SDS011;149;51.094;17.002;2023-01-06T03:09:14;2.53;;;2.10;;
323;SDS011;149;51.094;17.002;2023-01-06T03:11:45;2.85;;;2.20;;
323;SDS011;149;51.094;17.002;2023-01-06T03:14:26;4.47;;;3.03;;
323;SDS011;149;51.094;17.002;2023-01-06T03:16:59;7.35;;;2.85;;
323;SDS011;149;51.094;17.002;2023-01-06T03:19:29;7.28;;;3.35;;
323;SDS011;149;51.094;17.002;2023-01-06T03:21:58;4.82;;;3.15;;
323;SDS011;149;51.094;17.002;2023-01-06T03:24:27;9.10;;;4.35;;
323;SDS011;149;51.094;17.002;2023-01-06T03:26:57;11.05;;;5.20;;
323;SDS011;149;51.094;17.002;2023-01-06T03:29:26;7.45;;;4.60;;
323;SDS011;149;51.094;17.002;2023-01-06T03:41:29;5.40;;;4.05;;
323;SDS011;149;51.094;17.002;2023-01-06T03:44:11;5.95;;;3.80;;
323;SDS011;149;51.094;17.002;2023-01-06T03:46:48;7.32;;;4.30;;
323;SDS011;149;51.094;17.002;2023-01-06T03:49:27;5.13;;;3.95;;
323;SDS011;149;51.094;17.002;2023-01-06T03:52:41;3.58;;;3.28;;
323;SDS011;149;51.094;17.002;2023-01-06T03:54:58;4.45;;;3.50;;
323;SDS011;149;51.094;17.002;2023-01-06T03:57:35;6.90;;;4.18;;
323;SDS011;149;51.094;17.002;2023-01-06T04:00:16;5.88;;;2.95;;
323;SDS011;149;51.094;17.002;2023-01-06T04:02:47;8.85;;;4.85;;
323;SDS011;149;51.094;17.002;2023-01-06T04:05:16;5.55;;;3.70;;
323;SDS011;149;51.094;17.002;2023-01-06T04:07:51;5.85;;;3.53;;
323;SDS011;149;51.094;17.002;2023-01-06T04:10:19;4.13;;;3.78;;
323;SDS011;149;51.094;17.002;2023-01-06T04:12:47;3.33;;;3.03;;
323;SDS011;149;51.094;17.002;2023-01-06T04:15:16;6.15;;;3.35;;
323;SDS011;149;51.094;17.002;2023-01-06T04:17:45;4.80;;;3.92;;
323;SDS011;149;51.094;17.002;2023-01-06T04:20:28;7.47;;;3.40;;
323;SDS011;149;51.094;17.002;2023-01-06T04:22:56;3.83;;;3.28;;
323;SDS011;149;51.094;17.002;2023-01-06T04:25:24;4.60;;;2.53;;
323;SDS011;149;51.094;17.002;2023-01-06T04:27:51;5.13;;;2.83;;
323;SDS011;149;51.094;17.002;2023-01-06T04:30:19;3.72;;;2.33;;
323;SDS011;149;51.094;17.002;2023-01-06T04:32:46;3.92;;;2.83;;
323;SDS011;149;51.094;17.002;2023-01-06T04:35:13;8.38;;;4.07;;
323;SDS011;149;51.094;17.002;2023-01-06T04:37:40;4.97;;;2.92;;
323;SDS011;149;51.094;17.002;2023-01-06T04:40:07;2.83;;;2.58;;
323;SDS011;149;51.094;17.002;2023-01-06T04:42:35;5.03;;;3.08;;
323;SDS011;149;51.094;17.002;2023-01-06T04:45:21;5.88;;;3.35;;
323;SDS011;149;51.094;17.002;2023-01-06T04:47:48;9.60;;;3.20;;
323;SDS011;149;51.094;17.002;2023-01-06T04:50:15;3.05;;;2.78;;
323;SDS011;149;51.094;17.002;2023-01-06T04:52:43;6.55;;;3.90;;
323;SDS011;149;51.094;17.002;2023-01-06T04:55:10;6.93;;;3.17;;
323;SDS011;149;51.094;17.002;2023-01-06T04:57:39;7.60;;;4.32;;
323;SDS011;149;51.094;17.002;2023-01-06T05:00:10;4.85;;;3.42;;
323;SDS011;149;51.094;17.002;2023-01-06T05:02:38;4.90;;;3.67;;
323;SDS011;149;51.094;17.002;2023-01-06T05:05:06;4.45;;;2.70;;
323;SDS011;149;51.094;17.002;2023-01-06T05:07:33;4.93;;;3.30;;
323;SDS011;149;51.094;17.002;2023-01-06T05:10:05;4.47;;;3.35;;
323;SDS011;149;51.094;17.002;2023-01-06T05:12:33;5.72;;;4.20;;
323;SDS011;149;51.094;17.002;2023-01-06T05:15:03;5.15;;;3.28;;
323;SDS011;149;51.094;17.002;2023-01-06T05:17:32;6.95;;;4.68;;
323;SDS011;149;51.094;17.002;2023-01-06T05:20:01;8.70;;;3.13;;
323;SDS011;149;51.094;17.002;2023-01-06T05:22:31;4.25;;;3.85;;
323;SDS011;149;51.094;17.002;2023-01-06T05:24:58;6.85;;;3.95;;
323;SDS011;149;51.094;17.002;2023-01-06T05:27:25;4.82;;;3.33;;
323;SDS011;149;51.094;17.002;2023-01-06T05:29:53;3.08;;;2.78;;
323;SDS011;149;51.094;17.002;2023-01-06T05:32:20;9.50;;;3.10;;
323;SDS011;149;51.094;17.002;2023-01-06T05:34:49;5.13;;;3.72;;
323;SDS011;149;51.094;17.002;2023-01-06T05:37:16;4.47;;;3.00;;
323;SDS011;149;51.094;17.002;2023-01-06T05:39:45;6.78;;;5.38;;
323;SDS011;149;51.094;17.002;2023-01-06T05:42:14;10.45;;;5.88;;
323;SDS011;149;51.094;17.002;2023-01-06T05:44:43;8.98;;;6.22;;
323;SDS011;149;51.094;17.002;2023-01-06T05:47:10;15.32;;;7.03;;
323;SDS011;149;51.094;17.002;2023-01-06T05:49:37;8.75;;;3.95;;
323;SDS011;149;51.094;17.002;2023-01-06T05:52:07;5.95;;;3.28;;
323;SDS011;149;51.094;17.002;2023-01-06T05:54:35;12.52;;;5.93;;
323;SDS011;149;51.094;17.002;2023-01-06T05:57:05;11.82;;;5.40;;
323;SDS011;149;51.094;17.002;2023-01-06T05:59:32;4.15;;;3.70;;
323;SDS011;149;51.094;17.002;2023-01-06T06:01:59;4.82;;;3.75;;
323;SDS011;149;51.094;17.002;2023-01-06T06:04:27;3.83;;;3.50;;
323;SDS011;149;51.094;17.002;2023-01-06T06:06:54;5.10;;;3.50;;
323;SDS011;149;51.094;17.002;2023-01-06T06:09:23;2.85;;;2.60;;
323;SDS011;149;51.094;17.002;2023-01-06T06:11:54;4.60;;;3.08;;
323;SDS011;149;51.094;17.002;2023-01-06T06:14:26;7.22;;;3.63;;
323;SDS011;149;51.094;17.002;2023-01-06T06:16:53;6.57;;;2.83;;
323;SDS011;149;51.094;17.002;2023-01-06T06:19:22;6.22;;;2.63;;
323;SDS011;149;51.094;17.002;2023-01-06T06:21:49;7.57;;;2.78;;
323;SDS011;149;51.094;17.002;2023-01-06T06:24:18;5.57;;;3.22;;
323;SDS011;149;51.094;17.002;2023-01-06T06:26:45;3.72;;;2.70;;
323;SDS011;149;51.094;17.002;2023-01-06T06:29:12;3.65;;;2.60;;
323;SDS011;149;51.094;17.002;2023-01-06T06:31:39;7.88;;;5.00;;
323;SDS011;149;51.094;17.002;2023-01-06T06:34:06;7.35;;;3.17;;
323;SDS011;149;51.094;17.002;2023-01-06T06:36:36;3.95;;;3.13;;
323;SDS011;149;51.094;17.002;2023-01-06T06:39:03;10.38;;;5.65;;
323;SDS011;149;51.094;17.002;2023-01-06T06:41:31;4.53;;;3.85;;
323;SDS011;149;51.094;17.002;2023-01-06T06:43:58;7.70;;;4.13;;
323;SDS011;149;51.094;17.002;2023-01-06T06:46:27;3.15;;;2.83;;
323;SDS011;149;51.094;17.002;2023-01-06T06:48:55;6.63;;;3.42;;
323;SDS011;149;51.094;17.002;2023-01-06T06:51:23;4.55;;;3.45;;
323;SDS011;149;51.094;17.002;2023-01-06T06:53:50;4.45;;;3.40;;
323;SDS011;149;51.094;17.002;2023-01-06T06:56:18;4.20;;;3.78;;
323;SDS011;149;51.094;17.002;2023-01-06T06:58:46;7.53;;;4.47;;
323;SDS011;149;51.094;17.002;2023-01-06T07:01:14;9.02;;;4.72;;
323;SDS011;149;51.094;17.002;2023-01-06T07:03:43;7.40;;;3.90;;
323;SDS011;149;51.094;17.002;2023-01-06T07:06:21;4.10;;;3.70;;
323;SDS011;149;51.094;17.002;2023-01-06T07:08:53;3.55;;;3.08;;
323;SDS011;149;51.094;17.002;2023-01-06T07:11:21;9.57;;;4.00;;
323;SDS011;149;51.094;17.002;2023-01-06T07:13:50;5.10;;;4.70;;
323;SDS011;149;51.094;17.002;2023-01-06T07:16:17;5.68;;;3.63;;
323;SDS011;149;51.094;17.002;2023-01-06T07:18:48;4.93;;;4.38;;
323;SDS011;149;51.094;17.002;2023-01-06T07:21:15;7.82;;;4.75;;
323;SDS011;149;51.094;17.002;2023-01-06T07:23:42;7.72;;;4.60;;
323;SDS011;149;51.094;17.002;2023-01-06T07:26:09;6.70;;;4.85;;
323;SDS011;149;51.094;17.002;2023-01-06T07:28:37;7.25;;;5.00;;
323;SDS011;149;51.094;17.002;2023-01-06T07:31:04;5.20;;;4.20;;
323;SDS011;149;51.094;17.002;2023-01-06T07:33:31;4.63;;;3.63;;
323;SDS011;149;51.094;17.002;2023-01-06T07:35:59;3.78;;;3.08;;
323;SDS011;149;51.094;17.002;2023-01-06T07:38:26;4.63;;;3.25;;
323;SDS011;149;51.094;17.002;2023-01-06T07:40:57;5.00;;;2.35;;
323;SDS011;149;51.094;17.002;2023-01-06T07:43:25;4.22;;;3.85;;
323;SDS011;149;51.094;17.002;2023-01-06T07:45:56;3.53;;;3.03;;
323;SDS011;149;51.094;17.002;2023-01-06T07:48:24;4.20;;;3.80;;
323;SDS011;149;51.094;17.002;2023-01-06T07:50:51;7.03;;;3.88;;
323;SDS011;149;51.094;17.002;2023-01-06T07:53:19;4.95;;;4.45;;
323;SDS011;149;51.094;17.002;2023-01-06T07:55:51;6.43;;;4.35;;
323;SDS011;149;51.094;17.002;2023-01-06T07:58:25;5.80;;;4.30;;
323;SDS011;149;51.094;17.002;2023-01-06T08:00:53;6.18;;;5.32;;
323;SDS011;149;51.094;17.002;2023-01-06T08:03:21;8.75;;;5.10;;
323;SDS011;149;51.094;17.002;2023-01-06T08:05:49;8.43;;;5.40;;
323;SDS011;149;51.094;17.002;2023-01-06T08:08:16;8.38;;;6.65;;
323;SDS011;149;51.094;17.002;2023-01-06T08:10:46;8.88;;;6.32;;
323;SDS011;149;51.094;17.002;2023-01-06T08:13:13;5.25;;;4.50;;
323;SDS011;149;51.094;17.002;2023-01-06T08:15:40;5.22;;;3.53;;
323;SDS011;149;51.094;17.002;2023-01-06T08:18:09;5.65;;;4.05;;
323;SDS011;149;51.094;17.002;2023-01-06T08:20:36;6.60;;;4.45;;
323;SDS011;149;51.094;17.002;2023-01-06T08:23:05;4.05;;;3.20;;
323;SDS011;149;51.094;17.002;2023-01-06T08:25:32;4.57;;;4.00;;
323;SDS011;149;51.094;17.002;2023-01-06T08:28:01;7.97;;;3.90;;
323;SDS011;149;51.094;17.002;2023-01-06T08:30:28;5.88;;;3.20;;
323;SDS011;149;51.094;17.002;2023-01-06T08:35:31;18.70;;;7.97;;
323;SDS011;149;51.094;17.002;2023-01-06T08:37:58;11.27;;;6.32;;
323;SDS011;149;51.094;17.002;2023-01-06T08:43:08;19.27;;;10.18;;
323;SDS011;149;51.094;17.002;2023-01-06T08:45:38;6.63;;;4.20;;
323;SDS011;149;51.094;17.002;2023-01-06T08:48:05;17.48;;;6.50;;
323;SDS011;149;51.094;17.002;2023-01-06T08:50:38;21.48;;;8.10;;
323;SDS011;149;51.094;17.002;2023-01-06T08:53:06;11.43;;;4.13;;
323;SDS011;149;51.094;17.002;2023-01-06T08:55:39;11.52;;;5.05;;
323;SDS011;149;51.094;17.002;2023-01-06T08:58:11;8.82;;;4.80;;
323;SDS011;149;51.094;17.002;2023-01-06T09:00:38;14.38;;;7.80;;
323;SDS011;149;51.094;17.002;2023-01-06T09:03:07;7.75;;;4.15;;
323;SDS011;149;51.094;17.002;2023-01-06T09:05:36;9.98;;;4.55;;
323;SDS011;149;51.094;17.002;2023-01-06T09:08:05;16.58;;;7.20;;
323;SDS011;149;51.094;17.002;2023-01-06T09:10:32;20.33;;;9.15;;
323;SDS011;149;51.094;17.002;2023-01-06T09:13:03;18.80;;;7.95;;
323;SDS011;149;51.094;17.002;2023-01-06T09:15:30;11.57;;;6.95;;
323;SDS011;149;51.094;17.002;2023-01-06T09:17:57;36.33;;;15.35;;
323;SDS011;149;51.094;17.002;2023-01-06T09:20:27;22.80;;;10.05;;
323;SDS011;149;51.094;17.002;2023-01-06T09:23:02;11.90;;;5.80;;
323;SDS011;149;51.094;17.002;2023-01-06T09:25:30;17.17;;;7.22;;
323;SDS011;149;51.094;17.002;2023-01-06T09:27:57;7.82;;;4.78;;
323;SDS011;149;51.094;17.002;2023-01-06T09:30:27;6.60;;;3.55;;
323;SDS011;149;51.094;17.002;2023-01-06T09:33:00;16.60;;;7.18;;
323;SDS011;149;51.094;17.002;2023-01-06T09:35:30;23.00;;;8.98;;
323;SDS011;149;51.094;17.002;2023-01-06T09:38:03;19.50;;;7.85;;
323;SDS011;149;51.094;17.002;2023-01-06T09:40:36;20.40;;;7.28;;
323;SDS011;149;51.094;17.002;2023-01-06T09:43:19;6.78;;;4.05;;
323;SDS011;149;51.094;17.002;2023-01-06T09:46:11;19.00;;;9.57;;
323;SDS011;149;51.094;17.002;2023-01-06T09:48:55;17.25;;;7.10;;
323;SDS011;149;51.094;17.002;2023-01-06T09:51:43;16.52;;;7.63;;
323;SDS011;149;51.094;17.002;2023-01-06T09:54:15;16.65;;;7.97;;
323;SDS011;149;51.094;17.002;2023-01-06T09:56:53;17.52;;;7.80;;
323;SDS011;149;51.094;17.002;2023-01-06T09:59:29;20.88;;;7.00;;
323;SDS011;149;51.094;17.002;2023-01-06T10:02:00;17.95;;;6.50;;
323;SDS011;149;51.094;17.002;2023-01-06T10:04:30;7.00;;;4.20;;
323;SDS011;149;51.094;17.002;2023-01-06T10:15:16;13.70;;;8.93;;
323;SDS011;149;51.094;17.002;2023-01-06T10:25:59;25.30;;;11.27;;
323;SDS011;149;51.094;17.002;2023-01-06T10:28:38;21.83;;;10.52;;
323;SDS011;149;51.094;17.002;2023-01-06T10:31:13;31.20;;;14.32;;
323;SDS011;149;51.094;17.002;2023-01-06T10:33:46;8.73;;;5.82;;
323;SDS011;149;51.094;17.002;2023-01-06T10:36:17;8.15;;;4.90;;
323;SDS011;149;51.094;17.002;2023-01-06T10:38:54;8.70;;;4.35;;
323;SDS011;149;51.094;17.002;2023-01-06T10:44:11;5.25;;;4.13;;
323;SDS011;149;51.094;17.002;2023-01-06T10:46:40;12.93;;;7.28;;
323;SDS011;149;51.094;17.002;2023-01-06T10:49:16;7.82;;;5.15;;
323;SDS011;149;51.094;17.002;2023-01-06T10:51:54;15.13;;;7.70;;
323;SDS011;149;51.094;17.002;2023-01-06T10:57:03;9.65;;;4.78;;
323;SDS011;149;51.094;17.002;2023-01-06T11:02:44;15.43;;;6.78;;
323;SDS011;149;51.094;17.002;2023-01-06T11:05:23;12.32;;;4.95;;
323;SDS011;149;51.094;17.002;2023-01-06T11:07:54;15.60;;;6.70;;
323;SDS011;149;51.094;17.002;2023-01-06T11:10:30;7.22;;;5.38;;
323;SDS011;149;51.094;17.002;2023-01-06T11:13:23;19.33;;;9.23;;
323;SDS011;149;51.094;17.002;2023-01-06T11:15:55;13.02;;;6.50;;
323;SDS011;149;51.094;17.002;2023-01-06T11:18:30;11.18;;;5.80;;
323;SDS011;149;51.094;17.002;2023-01-06T11:21:06;14.15;;;5.95;;
323;SDS011;149;51.094;17.002;2023-01-06T11:23:45;12.32;;;6.97;;
323;SDS011;149;51.094;17.002;2023-01-06T11:26:20;7.13;;;4.50;;
323;SDS011;149;51.094;17.002;2023-01-06T11:28:52;8.57;;;4.40;;
323;SDS011;149;51.094;17.002;2023-01-06T11:31:24;5.43;;;3.95;;
323;SDS011;149;51.094;17.002;2023-01-06T11:36:35;10.80;;;5.43;;
323;SDS011;149;51.094;17.002;2023-01-06T11:39:12;8.13;;;5.22;;
323;SDS011;149;51.094;17.002;2023-01-06T11:41:47;6.55;;;4.60;;
323;SDS011;149;51.094;17.002;2023-01-06T11:47:03;4.65;;;4.25;;
323;SDS011;149;51.094;17.002;2023-01-06T11:49:49;8.38;;;4.50;;
323;SDS011;149;51.094;17.002;2023-01-06T11:52:19;8.52;;;6.45;;
323;SDS011;149;51.094;17.002;2023-01-06T11:54:58;8.80;;;5.28;;
323;SDS011;149;51.094;17.002;2023-01-06T12:03:29;11.30;;;6.10;;
323;SDS011;149;51.094;17.002;2023-01-06T12:08:58;11.27;;;6.03;;
323;SDS011;149;51.094;17.002;2023-01-06T12:14:30;9.90;;;6.45;;
323;SDS011;149;51.094;17.002;2023-01-06T12:19:54;16.02;;;8.15;;
323;SDS011;149;51.094;17.002;2023-01-06T12:25:50;11.13;;;6.00;;
323;SDS011;149;51.094;17.002;2023-01-06T12:28:24;12.10;;;7.28;;
323;SDS011;149;51.094;17.002;2023-01-06T12:34:29;11.00;;;8.20;;
323;SDS011;149;51.094;17.002;2023-01-06T12:45:09;12.27;;;7.35;;
323;SDS011;149;51.094;17.002;2023-01-06T12:47:47;12.30;;;8.10;;
323;SDS011;149;51.094;17.002;2023-01-06T12:52:54;12.93;;;8.13;;
323;SDS011;149;51.094;17.002;2023-01-06T12:55:36;15.05;;;8.60;;
323;SDS011;149;51.094;17.002;2023-01-06T13:00:50;10.75;;;7.65;;
323;SDS011;149;51.094;17.002;2023-01-06T13:03:26;10.45;;;7.60;;
323;SDS011;149;51.094;17.002;2023-01-06T13:12:00;10.70;;;7.72;;
323;SDS011;149;51.094;17.002;2023-01-06T13:17:41;11.20;;;8.45;;
323;SDS011;149;51.094;17.002;2023-01-06T13:20:23;14.20;;;8.05;;
323;SDS011;149;51.094;17.002;2023-01-06T13:28:14;13.45;;;9.07;;
323;SDS011;149;51.094;17.002;2023-01-06T13:33:33;13.00;;;9.50;;
323;SDS011;149;51.094;17.002;2023-01-06T13:39:00;15.15;;;9.65;;
323;SDS011;149;51.094;17.002;2023-01-06T13:41:35;18.10;;;10.00;;
323;SDS011;149;51.094;17.002;2023-01-06T13:44:04;18.05;;;9.90;;
323;SDS011;149;51.094;17.002;2023-01-06T13:46:43;17.27;;;9.23;;
323;SDS011;149;51.094;17.002;2023-01-06T13:49:12;18.92;;;11.65;;
323;SDS011;149;51.094;17.002;2023-01-06T13:51:40;12.90;;;8.15;;
323;SDS011;149;51.094;17.002;2023-01-06T14:05:06;16.83;;;9.50;;
323;SDS011;149;51.094;17.002;2023-01-06T14:07:54;10.43;;;9.15;;
323;SDS011;149;51.094;17.002;2023-01-06T14:13:03;17.10;;;10.63;;
323;SDS011;149;51.094;17.002;2023-01-06T14:15:50;18.55;;;11.23;;
323;SDS011;149;51.094;17.002;2023-01-06T14:19:02;19.58;;;10.93;;
323;SDS011;149;51.094;17.002;2023-01-06T14:21:29;14.70;;;10.93;;
323;SDS011;149;51.094;17.002;2023-01-06T14:26:47;21.13;;;12.50;;
323;SDS011;149;51.094;17.002;2023-01-06T14:32:05;18.50;;;11.15;;
323;SDS011;149;51.094;17.002;2023-01-06T14:34:37;18.70;;;14.13;;
323;SDS011;149;51.094;17.002;2023-01-06T14:37:11;17.17;;;12.30;;
323;SDS011;149;51.094;17.002;2023-01-06T14:39:47;22.65;;;12.85;;
323;SDS011;149;51.094;17.002;2023-01-06T14:42:24;16.33;;;11.73;;
323;SDS011;149;51.094;17.002;2023-01-06T14:45:04;19.00;;;11.05;;
323;SDS011;149;51.094;17.002;2023-01-06T14:48:00;18.75;;;12.00;;
323;SDS011;149;51.094;17.002;2023-01-06T14:50:34;14.75;;;10.63;;
323;SDS011;149;51.094;17.002;2023-01-06T14:53:24;19.75;;;12.07;;
323;SDS011;149;51.094;17.002;2023-01-06T14:56:19;21.75;;;12.77;;
323;SDS011;149;51.094;17.002;2023-01-06T14:58:48;18.02;;;11.77;;
323;SDS011;149;51.094;17.002;2023-01-06T15:01:33;19.90;;;13.00;;
323;SDS011;149;51.094;17.002;2023-01-06T15:04:02;17.00;;;10.68;;
323;SDS011;149;51.094;17.002;2023-01-06T15:06:32;17.25;;;11.85;;
323;SDS011;149;51.094;17.002;2023-01-06T15:11:59;21.55;;;14.25;;
323;SDS011;149;51.094;17.002;2023-01-06T15:14:31;24.08;;;15.07;;
323;SDS011;149;51.094;17.002;2023-01-06T15:17:03;42.83;;;27.75;;
323;SDS011;149;51.094;17.002;2023-01-06T15:19:33;21.02;;;11.80;;
323;SDS011;149;51.094;17.002;2023-01-06T15:22:05;19.23;;;11.38;;
323;SDS011;149;51.094;17.002;2023-01-06T15:24:34;18.95;;;12.10;;
323;SDS011;149;51.094;17.002;2023-01-06T15:27:12;19.55;;;12.63;;
323;SDS011;149;51.094;17.002;2023-01-06T15:29:48;18.48;;;13.15;;
323;SDS011;149;51.094;17.002;2023-01-06T15:32:20;23.98;;;13.95;;
323;SDS011;149;51.094;17.002;2023-01-06T15:34:48;26.08;;;16.20;;
323;SDS011;149;51.094;17.002;2023-01-06T15:37:21;21.63;;;16.25;;
323;SDS011;149;51.094;17.002;2023-01-06T15:39:51;22.92;;;15.27;;
323;SDS011;149;51.094;17.002;2023-01-06T15:42:24;24.92;;;15.15;;
323;SDS011;149;51.094;17.002;2023-01-06T15:44:59;17.23;;;13.40;;
323;SDS011;149;51.094;17.002;2023-01-06T15:47:53;14.52;;;11.35;;
323;SDS011;149;51.094;17.002;2023-01-06T15:50:28;21.92;;;13.13;;
323;SDS011;149;51.094;17.002;2023-01-06T15:52:59;24.13;;;14.93;;
323;SDS011;149;51.094;17.002;2023-01-06T15:55:35;16.33;;;11.80;;
323;SDS011;149;51.094;17.002;2023-01-06T15:58:07;18.42;;;10.85;;
323;SDS011;149;51.094;17.002;2023-01-06T16:01:01;17.15;;;10.80;;
323;SDS011;149;51.094;17.002;2023-01-06T16:03:49;14.27;;;10.00;;
323;SDS011;149;51.094;17.002;2023-01-06T16:06:31;15.05;;;10.30;;
323;SDS011;149;51.094;17.002;2023-01-06T16:12:28;19.13;;;12.40;;
323;SDS011;149;51.094;17.002;2023-01-06T16:14:41;22.58;;;11.57;;
323;SDS011;149;51.094;17.002;2023-01-06T16:20:05;14.77;;;10.55;;
323;SDS011;149;51.094;17.002;2023-01-06T16:22:48;20.08;;;11.30;;
323;SDS011;149;51.094;17.002;2023-01-06T16:25:25;16.33;;;10.18;;
323;SDS011;149;51.094;17.002;2023-01-06T16:27:54;17.90;;;10.77;;
323;SDS011;149;51.094;17.002;2023-01-06T16:30:36;17.95;;;11.45;;
323;SDS011;149;51.094;17.002;2023-01-06T16:33:29;18.23;;;11.00;;
323;SDS011;149;51.094;17.002;2023-01-06T16:35:58;24.55;;;12.27;;
323;SDS011;149;51.094;17.002;2023-01-06T16:38:26;15.68;;;11.38;;
323;SDS011;149;51.094;17.002;2023-01-06T16:40:53;16.38;;;11.60;;
323;SDS011;149;51.094;17.002;2023-01-06T16:43:26;17.65;;;12.77;;
323;SDS011;149;51.094;17.002;2023-01-06T16:45:54;20.70;;;12.90;;
323;SDS011;149;51.094;17.002;2023-01-06T16:48:28;28.40;;;16.73;;
323;SDS011;149;51.094;17.002;2023-01-06T16:50:55;21.65;;;15.13;;
323;SDS011;149;51.094;17.002;2023-01-06T16:53:24;17.15;;;12.30;;
323;SDS011;149;51.094;17.002;2023-01-06T16:55:59;18.80;;;12.50;;
323;SDS011;149;51.094;17.002;2023-01-06T16:58:27;15.55;;;11.32;;
323;SDS011;149;51.094;17.002;2023-01-06T17:01:01;17.77;;;10.45;;
323;SDS011;149;51.094;17.002;2023-01-06T17:03:35;14.88;;;11.00;;
323;SDS011;149;51.094;17.002;2023-01-06T17:06:11;18.83;;;10.52;;
323;SDS011;149;51.094;17.002;2023-01-06T17:08:42;22.83;;;11.60;;
323;SDS011;149;51.094;17.002;2023-01-06T17:11:25;12.13;;;9.98;;
323;SDS011;149;51.094;17.002;2023-01-06T17:16:37;13.45;;;9.20;;
323;SDS011;149;51.094;17.002;2023-01-06T17:19:23;13.20;;;9.15;;
323;SDS011;149;51.094;17.002;2023-01-06T17:22:24;12.82;;;8.30;;
323;SDS011;149;51.094;17.002;2023-01-06T17:25:00;9.13;;;6.43;;
323;SDS011;149;51.094;17.002;2023-01-06T17:27:35;13.20;;;7.10;;
323;SDS011;149;51.094;17.002;2023-01-06T17:30:05;9.95;;;7.25;;
323;SDS011;149;51.094;17.002;2023-01-06T17:32:40;8.40;;;6.15;;
323;SDS011;149;51.094;17.002;2023-01-06T17:37:57;10.15;;;6.03;;
323;SDS011;149;51.094;17.002;2023-01-06T17:40:27;7.95;;;4.07;;
323;SDS011;149;51.094;17.002;2023-01-06T17:43:02;4.72;;;3.80;;
323;SDS011;149;51.094;17.002;2023-01-06T17:45:35;5.32;;;3.90;;
323;SDS011;149;51.094;17.002;2023-01-06T17:48:07;4.65;;;3.78;;
323;SDS011;149;51.094;17.002;2023-01-06T17:50:40;3.78;;;3.38;;
323;SDS011;149;51.094;17.002;2023-01-06T17:53:27;6.38;;;5.30;;
323;SDS011;149;51.094;17.002;2023-01-06T17:56:20;8.98;;;5.20;;
323;SDS011;149;51.094;17.002;2023-01-06T17:58:49;6.90;;;5.20;;
323;SDS011;149;51.094;17.002;2023-01-06T18:01:21;11.98;;;7.10;;
323;SDS011;149;51.094;17.002;2023-01-06T18:03:52;9.95;;;5.65;;
323;SDS011;149;51.094;17.002;2023-01-06T18:06:28;7.43;;;4.97;;
323;SDS011;149;51.094;17.002;2023-01-06T18:09:10;10.65;;;7.05;;
323;SDS011;149;51.094;17.002;2023-01-06T18:11:47;6.75;;;5.18;;
323;SDS011;149;51.094;17.002;2023-01-06T18:14:19;8.20;;;4.88;;
323;SDS011;149;51.094;17.002;2023-01-06T18:16:56;15.68;;;7.38;;
323;SDS011;149;51.094;17.002;2023-01-06T18:19:40;4.95;;;4.03;;
323;SDS011;149;51.094;17.002;2023-01-06T18:22:12;10.82;;;5.53;;
323;SDS011;149;51.094;17.002;2023-01-06T18:24:43;7.97;;;5.40;;
323;SDS011;149;51.094;17.002;2023-01-06T18:27:18;6.15;;;4.95;;
323;SDS011;149;51.094;17.002;2023-01-06T18:30:10;6.30;;;4.35;;
323;SDS011;149;51.094;17.002;2023-01-06T18:32:47;8.18;;;6.78;;
323;SDS011;149;51.094;17.002;2023-01-06T18:35:19;6.45;;;4.90;;
323;SDS011;149;51.094;17.002;2023-01-06T18:37:59;6.15;;;4.43;;
323;SDS011;149;51.094;17.002;2023-01-06T18:40:29;5.38;;;4.70;;
323;SDS011;149;51.094;17.002;2023-01-06T18:42:57;4.40;;;4.00;;